createdAt,value
2018-01-08T00:02:26.008Z,66.55
2018-01-08T00:04:53.460Z,69.43
2018-01-08T00:07:20.895Z,69.73
2018-01-08T00:09:48.351Z,62.17
2018-01-08T00:12:16.563Z,65.18
2018-01-08T00:14:44.776Z,66.37
2018-01-08T00:17:12.226Z,64.07
2018-01-08T00:19:40.440Z,62.65
2018-01-08T00:22:08.644Z,66.28
2018-01-08T00:24:36.095Z,63.05
2018-01-08T00:27:03.540Z,57.65
2018-01-08T00:29:30.978Z,64.07
2018-01-08T00:31:59.208Z,64.28
2018-01-08T00:34:26.657Z,68.62
2018-01-08T00:36:54.875Z,64.23
2018-01-08T00:39:22.321Z,67.77
2018-01-08T00:41:49.782Z,62.28
2018-01-08T00:44:17.238Z,70.45
2018-01-08T00:46:44.707Z,60.12
2018-01-08T00:49:12.156Z,68.70
2018-01-08T00:51:40.367Z,66.70
2018-01-08T00:54:07.808Z,62.92
2018-01-08T00:56:35.269Z,69.75
2018-01-08T00:59:02.722Z,67.75
2018-01-08T01:01:30.173Z,72.10
2018-01-08T01:03:58.370Z,69.25
2018-01-08T01:06:26.606Z,65.22
2018-01-08T01:08:54.056Z,72.25
2018-01-08T01:11:22.276Z,70.78
2018-01-08T01:13:49.725Z,70.95
2018-01-08T01:16:17.941Z,69.80
2018-01-08T01:18:45.395Z,70.00
2018-01-08T01:21:12.843Z,71.18
2018-01-08T01:23:40.297Z,61.30
2018-01-08T01:26:07.745Z,75.18
2018-01-08T01:28:35.962Z,76.22
2018-01-08T01:31:03.416Z,71.82
2018-01-08T01:33:31.630Z,75.95
2018-01-08T01:35:59.853Z,74.00
2018-01-08T01:38:27.291Z,75.03
2018-01-08T01:40:54.754Z,76.30
2018-01-08T01:43:22.199Z,79.18
2018-01-08T01:45:49.654Z,80.75
2018-01-08T01:48:17.865Z,79.03
2018-01-08T01:50:45.316Z,77.67
2018-01-08T01:53:12.771Z,81.63
2018-01-08T01:55:40.212Z,77.97
2018-01-08T01:58:07.652Z,81.43
2018-01-08T02:00:35.115Z,76.93
2018-01-08T02:03:02.557Z,79.03
2018-01-08T02:05:30.014Z,79.93
2018-01-08T02:07:58.216Z,89.40
2018-01-08T02:10:25.668Z,87.90
2018-01-08T02:12:53.962Z,88.75
2018-01-08T02:15:21.414Z,85.40
2018-01-08T02:17:48.867Z,76.57
2018-01-08T02:20:16.322Z,81.05
2018-01-08T02:22:43.744Z,83.07
2018-01-08T02:25:11.205Z,78.18
2018-01-08T02:27:38.650Z,78.22
2018-01-08T02:30:06.089Z,76.07
2018-01-08T02:32:33.555Z,73.15
2018-01-08T02:35:00.994Z,76.80
2018-01-08T02:37:28.445Z,80.93
2018-01-08T02:39:55.904Z,78.68
2018-01-08T02:42:23.352Z,69.57
2018-01-08T02:44:51.563Z,80.70
2018-01-08T02:47:19.776Z,83.78
2018-01-08T02:49:47.225Z,82.45
2018-01-08T02:52:15.449Z,83.15
2018-01-08T02:54:42.897Z,76.70
2018-01-08T02:57:10.349Z,79.25
2018-01-08T02:59:37.792Z,84.95
2018-01-08T03:02:05.241Z,83.10
2018-01-08T03:04:33.443Z,81.37
2018-01-08T03:07:01.665Z,80.20
2018-01-08T03:09:29.122Z,78.90
2018-01-08T03:11:57.342Z,76.47
2018-01-08T03:14:24.789Z,83.43
2018-01-08T03:16:52.250Z,76.05
2018-01-08T03:19:19.693Z,74.53
2018-01-08T03:21:47.149Z,82.22
2018-01-08T03:24:15.360Z,75.78
2018-01-08T03:26:42.818Z,73.72
2018-01-08T03:29:10.260Z,71.70
2018-01-08T03:31:37.708Z,80.30
2018-01-08T03:34:05.210Z,74.70
2018-01-08T03:36:33.388Z,75.45
2018-01-08T03:39:00.833Z,76.37
2018-01-08T03:41:28.282Z,70.00
2018-01-08T03:43:55.719Z,71.43
2018-01-08T03:46:23.946Z,65.90
2018-01-08T03:48:51.379Z,71.70
2018-01-08T03:51:19.600Z,60.85
2018-01-08T03:53:47.045Z,68.78
2018-01-08T03:56:14.501Z,68.05
2018-01-08T03:58:42.717Z,62.85
2018-01-08T04:01:10.183Z,62.50
2018-01-08T04:03:38.402Z,65.00
2018-01-08T04:06:05.858Z,65.82
2018-01-08T04:08:34.059Z,68.87
2018-01-08T04:11:02.269Z,72.82
2018-01-08T04:13:29.725Z,68.18
2018-01-08T04:15:57.953Z,65.62
2018-01-08T04:18:25.409Z,66.53
2018-01-08T04:20:52.836Z,68.55
2018-01-08T04:23:20.296Z,65.75
2018-01-08T04:25:47.760Z,63.70
2018-01-08T04:28:15.963Z,64.43
2018-01-08T04:30:44.177Z,61.55
2018-01-08T04:33:11.633Z,61.37
2018-01-08T04:35:39.841Z,58.28
2018-01-08T04:38:08.055Z,54.50
2018-01-08T04:40:35.492Z,58.50
2018-01-08T04:43:02.953Z,58.55
2018-01-08T04:45:30.399Z,58.80
2018-01-08T04:47:57.856Z,62.47
2018-01-08T04:50:26.056Z,53.58
2018-01-08T04:52:54.280Z,59.97
2018-01-08T04:55:21.733Z,58.17
2018-01-08T04:57:49.943Z,59.25
2018-01-08T05:00:17.388Z,54.70
2018-01-08T05:02:44.844Z,54.65
2018-01-08T05:05:12.286Z,55.75
2018-01-08T05:07:39.740Z,59.85
2018-01-08T05:10:07.194Z,53.85
2018-01-08T05:12:34.653Z,62.33
2018-01-08T05:15:02.139Z,50.50
2018-01-08T05:17:29.594Z,48.00
2018-01-08T05:19:57.030Z,47.08
2018-01-08T05:22:24.483Z,49.53
2018-01-08T05:24:51.932Z,50.03
2018-01-08T05:27:19.392Z,43.15
2018-01-08T05:29:46.830Z,43.30
2018-01-08T05:32:14.293Z,44.85
2018-01-08T05:34:41.743Z,44.25
2018-01-08T05:37:09.956Z,43.50
2018-01-08T05:39:37.399Z,43.50
2018-01-08T05:42:04.852Z,42.27
2018-01-08T05:44:32.307Z,42.10
2018-01-08T05:46:59.758Z,37.78
2018-01-08T05:49:28.001Z,41.47
2018-01-08T05:51:55.458Z,45.33
2018-01-08T05:54:22.905Z,41.33
2018-01-08T05:56:50.361Z,41.80
2018-01-08T05:59:17.814Z,46.57
2018-01-08T06:01:45.276Z,37.88
2018-01-08T06:04:12.725Z,48.08
2018-01-08T06:06:40.206Z,46.17
2018-01-08T06:09:07.661Z,46.13
2018-01-08T06:11:35.115Z,42.13
2018-01-08T06:14:02.563Z,41.97
2018-01-08T06:16:30.786Z,44.08
2018-01-08T06:18:58.237Z,43.87
2018-01-08T06:21:25.680Z,43.58
2018-01-08T06:23:53.129Z,47.30
2018-01-08T06:26:20.585Z,47.85
2018-01-08T06:28:48.811Z,52.62
2018-01-08T06:31:16.298Z,48.85
2018-01-08T06:33:43.695Z,49.00
2018-01-08T06:36:11.148Z,54.22
2018-01-08T06:38:38.594Z,49.78
2018-01-08T06:41:06.024Z,54.37
2018-01-08T06:43:33.492Z,49.78
2018-01-08T06:46:00.935Z,48.30
2018-01-08T06:48:28.394Z,48.30
2018-01-08T06:50:55.844Z,50.40
2018-01-08T06:53:23.294Z,50.85
2018-01-08T06:55:51.506Z,51.20
2018-01-08T06:58:19.010Z,44.83
2018-01-08T07:00:46.453Z,47.72
2018-01-08T07:03:14.676Z,46.15
2018-01-08T07:05:42.129Z,47.92
2018-01-08T07:08:09.582Z,52.90
2018-01-08T07:10:37.032Z,53.97
2018-01-08T07:13:04.481Z,49.40
2018-01-08T07:15:32.681Z,48.57
2018-01-08T07:18:00.900Z,56.42
2018-01-08T07:20:28.340Z,53.70
2018-01-08T07:22:55.796Z,48.72
2018-01-08T07:25:23.233Z,51.08
2018-01-08T07:27:50.696Z,47.58
2018-01-08T07:30:18.910Z,50.38
2018-01-08T07:32:46.359Z,50.45
2018-01-08T07:35:13.803Z,51.58
2018-01-08T07:37:41.261Z,52.80
2018-01-08T07:40:08.697Z,55.25
2018-01-08T07:42:36.198Z,53.50
2018-01-08T07:45:03.592Z,53.05
2018-01-08T07:47:31.805Z,57.95
2018-01-08T07:49:59.244Z,55.88
2018-01-08T07:52:26.686Z,53.17
2018-01-08T07:54:54.122Z,55.95
2018-01-08T07:57:22.354Z,55.20
2018-01-08T07:59:49.802Z,58.53
2018-01-08T08:02:18.044Z,61.40
2018-01-08T08:04:45.490Z,55.80
2018-01-08T08:07:13.712Z,59.03
2018-01-08T08:09:41.171Z,60.45
2018-01-08T08:12:09.398Z,51.70
2018-01-08T08:14:36.853Z,57.30
2018-01-08T08:17:04.304Z,55.65
2018-01-08T08:19:31.759Z,60.75
2018-01-08T08:21:59.198Z,59.38
2018-01-08T08:24:26.656Z,59.45
2018-01-08T08:26:54.876Z,58.00
2018-01-08T08:29:22.334Z,57.97
2018-01-08T08:31:49.799Z,52.73
2018-01-08T08:34:17.228Z,53.50
2018-01-08T08:36:44.669Z,52.10
2018-01-08T08:39:12.126Z,51.07
2018-01-08T08:41:39.577Z,51.78
2018-01-08T08:44:07.028Z,51.00
2018-01-08T08:46:35.236Z,47.75
2018-01-08T08:49:03.455Z,48.47
2018-01-08T08:51:30.894Z,42.90
2018-01-08T08:53:58.357Z,45.33
2018-01-08T08:56:25.802Z,47.53
2018-01-08T08:58:53.256Z,46.67
2018-01-08T09:01:21.469Z,50.53
2018-01-08T09:03:48.928Z,45.20
2018-01-08T09:06:17.135Z,49.97
2018-01-08T09:08:45.361Z,41.22
2018-01-08T09:11:12.799Z,44.55
2018-01-08T09:13:40.261Z,47.70
2018-01-08T09:16:07.749Z,44.80
2018-01-08T09:18:35.196Z,43.83
2018-01-08T09:21:02.640Z,42.83
2018-01-08T09:23:30.864Z,41.22
2018-01-08T09:25:58.309Z,43.28
2018-01-08T09:28:26.535Z,39.55
2018-01-08T09:30:53.978Z,36.78
2018-01-08T09:33:21.420Z,43.72
2018-01-08T09:35:48.872Z,41.35
2018-01-08T09:38:16.320Z,48.05
2018-01-08T09:40:43.777Z,38.63
2018-01-08T09:43:11.220Z,39.57
2018-01-08T09:45:38.673Z,34.13
2018-01-08T09:48:06.876Z,39.87
2018-01-08T09:50:35.096Z,44.23
2018-01-08T09:53:02.539Z,40.47
2018-01-08T09:55:31.021Z,40.90
2018-01-08T09:57:58.453Z,39.47
2018-01-08T10:00:25.905Z,41.53
2018-01-08T10:03:05.844Z,37.70
2018-01-08T10:05:45.346Z,36.47
2018-01-08T10:08:25.522Z,41.88
2018-01-08T10:11:04.959Z,48.77
2018-01-08T10:13:44.399Z,40.35
2018-01-08T10:16:23.715Z,39.30
2018-01-08T10:21:46.683Z,41.65
2018-01-08T10:24:14.146Z,39.88
2018-01-08T10:29:08.567Z,36.20
2018-01-08T10:31:36.783Z,36.85
2018-01-08T10:34:04.220Z,46.63
2018-01-08T10:36:31.678Z,40.65
2018-01-08T10:38:59.109Z,47.75
2018-01-08T10:41:32.992Z,42.60
2018-01-08T10:44:06.299Z,40.88
2018-01-08T10:46:39.508Z,37.17
2018-01-08T10:49:12.619Z,37.10
2018-01-08T10:51:40.532Z,43.17
2018-01-08T10:54:07.991Z,42.17
2018-01-08T10:56:35.445Z,38.80
2018-01-08T10:59:03.670Z,33.93
2018-01-08T11:04:35.926Z,37.45
2018-01-08T11:07:03.388Z,34.83
2018-01-08T11:09:30.833Z,32.05
2018-01-08T11:11:58.281Z,32.85
2018-01-08T11:14:25.729Z,36.55
2018-01-08T11:16:53.191Z,30.83
2018-01-08T11:19:21.406Z,33.03
2018-01-08T11:21:48.858Z,37.17
2018-01-08T11:24:16.316Z,33.63
2018-01-08T11:26:43.769Z,33.83
2018-01-08T11:29:11.217Z,34.20
2018-01-08T11:31:39.435Z,33.38
2018-01-08T11:34:06.879Z,36.78
2018-01-08T11:36:34.341Z,34.75
2018-01-08T11:39:01.782Z,33.92
2018-01-08T11:41:29.227Z,32.58
2018-01-08T11:43:57.446Z,31.05
2018-01-08T11:46:25.658Z,31.40
2018-01-08T11:48:53.101Z,31.20
2018-01-08T11:51:20.553Z,29.73
2018-01-08T11:53:48.005Z,30.98
2018-01-08T11:56:15.447Z,35.42
2018-01-08T11:58:43.683Z,29.23
2018-01-08T12:01:11.122Z,31.17
2018-01-08T12:03:38.602Z,27.30
2018-01-08T12:06:06.045Z,27.90
2018-01-08T12:08:33.503Z,30.42
2018-01-08T12:11:00.941Z,30.77
2018-01-08T12:13:28.405Z,28.17
2018-01-08T12:15:55.845Z,26.27
2018-01-08T12:18:23.296Z,26.30
2018-01-08T12:20:51.512Z,24.23
2018-01-08T12:23:18.971Z,24.35
2018-01-08T12:25:47.174Z,23.77
2018-01-08T12:28:15.395Z,23.52
2018-01-08T12:30:43.598Z,26.87
2018-01-08T12:33:11.113Z,26.67
2018-01-08T12:35:38.554Z,26.77
2018-01-08T12:38:06.014Z,28.70
2018-01-08T12:40:34.228Z,27.98
2018-01-08T12:43:01.693Z,26.77
2018-01-08T12:45:29.906Z,29.30
2018-01-08T12:47:57.357Z,30.50
2018-01-08T12:50:24.802Z,30.33
2018-01-08T12:52:52.260Z,30.70
2018-01-08T12:55:19.708Z,27.23
2018-01-08T12:57:47.181Z,25.92
2018-01-08T13:00:14.635Z,24.58
2018-01-08T13:02:42.072Z,28.77
2018-01-08T13:05:09.534Z,26.33
2018-01-08T13:07:37.750Z,24.90
2018-01-08T13:10:05.205Z,26.50
2018-01-08T13:12:32.665Z,23.52
2018-01-08T13:15:00.122Z,25.33
2018-01-08T13:17:27.574Z,27.20
2018-01-08T13:19:55.044Z,27.00
2018-01-08T13:22:23.270Z,24.85
2018-01-08T13:24:50.737Z,24.70
2018-01-08T13:27:18.178Z,25.37
2018-01-08T13:29:45.634Z,21.75
2018-01-08T13:32:13.074Z,22.17
2018-01-08T13:34:40.525Z,20.23
2018-01-08T13:37:07.974Z,21.70
2018-01-08T13:39:35.437Z,22.05
2018-01-08T13:42:02.878Z,19.15
2018-01-08T13:44:31.105Z,21.15
2018-01-08T13:46:58.554Z,20.90
2018-01-08T13:49:26.012Z,24.33
2018-01-08T13:51:53.460Z,22.62
2018-01-08T13:54:20.917Z,20.45
2018-01-08T13:56:49.130Z,19.13
2018-01-08T13:59:16.586Z,23.73
2018-01-08T14:01:44.811Z,18.67
2018-01-08T14:04:12.261Z,19.67
2018-01-08T14:06:40.478Z,17.17
2018-01-08T14:09:08.689Z,15.50
2018-01-08T14:11:36.173Z,18.08
2018-01-08T14:14:04.377Z,18.77
2018-01-08T14:16:31.830Z,18.10
2018-01-08T14:19:00.046Z,18.10
2018-01-08T14:21:27.496Z,16.17
2018-01-08T14:23:55.709Z,17.83
2018-01-08T14:26:23.175Z,15.00
2018-01-08T14:28:50.618Z,15.00
2018-01-08T14:31:18.084Z,16.30
2018-01-08T14:33:45.533Z,14.87
2018-01-08T14:36:12.982Z,13.43
2018-01-08T14:38:40.437Z,13.60
2018-01-08T14:41:07.894Z,13.70
2018-01-08T14:43:35.337Z,14.50
2018-01-08T14:46:03.559Z,16.20
2018-01-08T14:48:31.009Z,16.55
2018-01-08T14:50:58.462Z,14.68
2018-01-08T14:53:25.910Z,18.40
2018-01-08T14:55:53.377Z,22.10
2018-01-08T14:58:21.593Z,14.40
2018-01-08T15:00:49.049Z,14.30
2018-01-08T15:03:17.260Z,14.98
2018-01-08T15:05:44.723Z,15.90
2018-01-08T15:08:12.939Z,15.13
2018-01-08T15:10:40.394Z,14.90
2018-01-08T15:13:07.847Z,15.25
2018-01-08T15:15:35.302Z,15.63
2018-01-08T15:18:02.745Z,17.48
2018-01-08T15:20:30.974Z,14.60
2018-01-08T15:22:58.419Z,14.73
2018-01-08T15:25:25.860Z,14.98
2018-01-08T15:27:53.312Z,14.30
2018-01-08T15:30:20.756Z,15.80
2018-01-08T15:32:48.224Z,20.30
2018-01-08T15:35:15.659Z,14.65
2018-01-08T15:37:43.109Z,18.60
2018-01-08T15:40:11.313Z,16.67
2018-01-08T15:42:39.531Z,14.35
2018-01-08T15:45:06.970Z,18.83
2018-01-08T15:47:34.418Z,14.95
2018-01-08T15:50:01.857Z,14.80
2018-01-08T15:52:30.076Z,15.55
2018-01-08T15:55:03.320Z,13.80
2018-01-08T15:57:30.771Z,16.73
2018-01-08T15:59:58.216Z,16.00
2018-01-08T16:02:25.683Z,17.15
2018-01-08T16:04:53.121Z,16.50
2018-01-08T16:07:20.547Z,19.77
2018-01-08T16:09:48.073Z,17.77
2018-01-08T16:12:15.508Z,16.45
2018-01-08T16:14:42.952Z,16.47
2018-01-08T16:17:10.392Z,19.27
2018-01-08T16:19:37.835Z,16.37
2018-01-08T16:22:05.273Z,18.43
2018-01-08T16:24:33.479Z,17.67
2018-01-08T16:27:00.915Z,25.33
2018-01-08T16:29:28.372Z,19.47
2018-01-08T16:31:56.567Z,21.00
2018-01-08T16:34:24.037Z,18.80
2018-01-08T16:36:51.491Z,18.30
2018-01-08T16:39:19.688Z,17.83
2018-01-08T16:41:47.916Z,19.27
2018-01-08T16:44:15.356Z,18.90
2018-01-08T16:46:43.566Z,17.00
2018-01-08T16:49:11.764Z,18.73
2018-01-08T16:51:39.967Z,23.70
2018-01-08T16:54:07.449Z,22.67
2018-01-08T16:56:35.652Z,20.70
2018-01-08T16:59:03.092Z,24.50
2018-01-08T17:01:30.540Z,21.52
2018-01-08T17:03:57.975Z,19.33
2018-01-08T17:06:26.187Z,22.83
2018-01-08T17:08:53.624Z,23.27
2018-01-08T17:11:21.083Z,23.65
2018-01-08T17:13:48.524Z,21.50
2018-01-08T17:16:15.976Z,21.37
2018-01-08T17:18:43.432Z,29.80
2018-01-08T17:21:10.877Z,24.85
2018-01-08T17:23:38.313Z,24.90
2018-01-08T17:26:05.764Z,22.37
2018-01-08T17:28:33.257Z,31.87
2018-01-08T17:31:00.730Z,27.77
2018-01-08T17:33:28.222Z,22.65
2018-01-08T17:35:55.648Z,22.62
2018-01-08T17:38:23.871Z,20.33
2018-01-08T17:40:51.350Z,19.90
2018-01-08T17:43:18.797Z,21.98
2018-01-08T17:45:47.001Z,22.70
2018-01-08T17:48:15.214Z,22.00
2018-01-08T17:50:42.702Z,23.20
2018-01-08T17:53:10.175Z,21.90
2018-01-08T17:55:38.414Z,25.40
2018-01-08T17:58:05.882Z,23.60
2018-01-08T18:00:33.316Z,28.38
2018-01-08T18:03:01.564Z,29.63
2018-01-08T18:05:28.992Z,35.28
2018-01-08T18:07:57.246Z,33.38
2018-01-08T18:10:24.679Z,23.75
2018-01-08T18:12:52.903Z,23.25
2018-01-08T18:15:20.340Z,23.30
2018-01-08T18:17:47.790Z,23.47
2018-01-08T18:20:15.237Z,25.35
2018-01-08T18:22:42.722Z,25.88
2018-01-08T18:25:10.152Z,31.17
2018-01-08T18:27:37.604Z,30.90
2018-01-08T18:30:05.082Z,25.35
2018-01-08T18:32:32.496Z,27.63
2018-01-08T18:34:59.939Z,24.85
2018-01-08T18:37:27.380Z,24.97
2018-01-08T18:39:55.635Z,27.93
2018-01-08T18:42:23.098Z,26.23
2018-01-08T18:44:50.570Z,31.27
2018-01-08T18:47:18.033Z,25.27
2018-01-08T18:49:46.232Z,30.37
2018-01-08T18:52:14.428Z,28.07
2018-01-08T18:54:41.879Z,27.93
2018-01-08T18:57:09.318Z,29.70
2018-01-08T18:59:36.813Z,26.97
2018-01-08T19:02:04.295Z,25.57
2018-01-08T19:04:31.773Z,29.42
2018-01-08T19:06:59.209Z,29.15
2018-01-08T19:09:27.458Z,31.67
2018-01-08T19:11:54.926Z,25.40
2018-01-08T19:14:22.434Z,26.02
2018-01-08T19:16:49.910Z,30.57
2018-01-08T19:19:17.391Z,27.27
2018-01-08T19:21:44.875Z,32.05
2018-01-08T19:24:12.345Z,30.55
2018-01-08T19:26:39.809Z,28.98
2018-01-08T19:29:07.231Z,32.07
2018-01-08T19:31:34.748Z,34.28
2018-01-08T19:34:02.222Z,29.30
2018-01-08T19:36:29.702Z,26.30
2018-01-08T19:38:57.119Z,27.00
2018-01-08T19:41:24.563Z,28.87
2018-01-08T19:43:52.055Z,25.80
2018-01-08T19:46:19.535Z,29.00
2018-01-08T19:48:47.011Z,28.63
2018-01-08T19:51:14.500Z,31.27
2018-01-08T19:53:41.967Z,30.53
2018-01-08T19:56:09.450Z,26.83
2018-01-08T19:58:36.931Z,26.80
2018-01-08T20:01:04.408Z,26.53
2018-01-08T20:03:31.831Z,27.48
2018-01-08T20:05:59.332Z,22.50
2018-01-08T20:08:26.764Z,27.85
2018-01-08T20:10:55.025Z,23.30
2018-01-08T20:13:22.455Z,22.90
2018-01-08T20:15:50.717Z,19.62
2018-01-08T20:18:18.210Z,20.73
2018-01-08T20:20:45.682Z,22.55
2018-01-08T20:23:13.169Z,22.23
2018-01-08T20:25:40.637Z,22.08
2018-01-08T20:28:08.141Z,23.95
2018-01-08T20:30:35.632Z,27.00
2018-01-08T20:33:03.111Z,23.62
2018-01-08T20:35:30.606Z,25.57
2018-01-08T20:37:58.888Z,22.52
2018-01-08T20:40:26.360Z,24.87
2018-01-08T20:42:53.855Z,24.93
2018-01-08T20:45:21.332Z,28.65
2018-01-08T20:47:48.811Z,28.30
2018-01-08T20:50:16.296Z,26.67
2018-01-08T20:52:43.780Z,26.42
2018-01-08T20:55:11.260Z,23.77
2018-01-08T20:57:38.746Z,22.15
2018-01-08T21:00:06.214Z,23.98
2018-01-08T21:02:33.702Z,22.62
2018-01-08T21:05:01.124Z,23.05
2018-01-08T21:07:28.623Z,22.92
2018-01-08T21:09:56.111Z,21.77
2018-01-08T21:12:23.608Z,24.70
2018-01-08T21:14:51.091Z,25.90
2018-01-08T21:17:18.573Z,25.23
2018-01-08T21:19:46.055Z,28.73
2018-01-08T21:22:13.537Z,25.75
2018-01-08T21:24:41.005Z,26.37
2018-01-08T21:27:09.205Z,28.10
2018-01-08T21:29:36.718Z,26.75
2018-01-08T21:32:04.193Z,28.38
2018-01-08T21:34:31.686Z,30.43
2018-01-08T21:36:59.171Z,28.58
2018-01-08T21:39:26.594Z,32.58
2018-01-08T21:41:54.091Z,34.10
2018-01-08T21:44:21.583Z,30.67
2018-01-08T21:46:49.067Z,32.30
2018-01-08T21:49:16.553Z,32.28
2018-01-08T21:51:44.018Z,30.25
2018-01-08T21:54:11.501Z,28.70
2018-01-08T21:56:38.981Z,28.77
2018-01-08T21:59:06.458Z,26.07
2018-01-08T22:01:33.917Z,27.30
2018-01-08T22:04:01.404Z,30.27
2018-01-08T22:06:28.877Z,30.40
2018-01-08T22:08:56.359Z,27.30
2018-01-08T22:11:23.834Z,31.13
2018-01-08T22:13:52.089Z,26.83
2018-01-08T22:16:19.571Z,28.47
2018-01-08T22:18:47.047Z,25.93
2018-01-08T22:21:14.527Z,23.37
2018-01-08T22:23:41.957Z,25.87
2018-01-08T22:26:09.451Z,28.10
2018-01-08T22:28:36.942Z,22.53
2018-01-08T22:31:04.408Z,22.60
2018-01-08T22:33:31.903Z,27.53
2018-01-08T22:35:59.328Z,25.90
2018-01-08T22:38:26.827Z,24.67
2018-01-08T22:40:54.299Z,23.43
2018-01-08T22:43:21.778Z,21.97
2018-01-08T22:45:49.251Z,23.73
2018-01-08T22:48:16.717Z,23.27
2018-01-08T22:50:44.203Z,27.70
2018-01-08T22:53:11.674Z,26.57
2018-01-08T22:55:39.156Z,25.90
2018-01-08T22:58:06.629Z,20.87
2018-01-08T23:00:34.121Z,27.93
2018-01-08T23:03:01.602Z,23.10
2018-01-08T23:05:29.098Z,22.03
2018-01-08T23:07:56.593Z,20.33
2018-01-08T23:10:24.084Z,22.23
2018-01-08T23:12:52.319Z,21.47
2018-01-08T23:15:19.807Z,21.60
2018-01-08T23:17:47.275Z,26.00
2018-01-08T23:20:14.758Z,21.83
2018-01-08T23:22:42.227Z,18.67
2018-01-08T23:25:09.697Z,21.90
2018-01-08T23:27:37.931Z,23.30
2018-01-08T23:30:05.422Z,27.07
2018-01-08T23:32:32.886Z,22.53
2018-01-08T23:35:00.315Z,20.27
2018-01-08T23:37:28.518Z,18.13
2018-01-08T23:39:56.770Z,23.03
2018-01-08T23:42:24.195Z,21.60
2018-01-08T23:44:52.410Z,20.93
2018-01-08T23:47:19.839Z,22.67
2018-01-08T23:49:47.291Z,19.83
2018-01-08T23:52:14.780Z,22.50
2018-01-08T23:54:42.209Z,17.37
2018-01-08T23:57:09.693Z,19.13
2018-01-08T23:59:37.128Z,16.80
